createdAt,value
2023-01-06T00:02:05.991Z,3.90
2023-01-06T00:07:07.828Z,4.40
2023-01-06T00:17:14.282Z,4.70
2023-01-06T00:22:16.174Z,2.70
2023-01-06T00:27:17.879Z,4.00
2023-01-06T00:32:21.880Z,5.60
2023-01-06T00:37:23.607Z,4.80
2023-01-06T00:42:26.629Z,6.00
2023-01-06T00:47:28.290Z,4.50
2023-01-06T00:52:30.179Z,4.40
2023-01-06T00:57:33.295Z,3.60
2023-01-06T01:02:35.476Z,3.90
2023-01-06T01:07:37.448Z,3.10
2023-01-06T01:12:39.177Z,1.00
2023-01-06T01:17:41.204Z,3.50
2023-01-06T01:22:42.930Z,5.50
2023-01-06T01:27:44.641Z,3.70
2023-01-06T01:32:47.381Z,6.40
2023-01-06T01:37:49.139Z,4.30
2023-01-06T01:42:50.868Z,3.90
2023-01-06T01:48:01.167Z,6.90
2023-01-06T01:53:15.891Z,2.50
2023-01-06T01:58:31.170Z,2.20
2023-01-06T02:03:33.099Z,3.00
2023-01-06T02:08:41.804Z,3.00
2023-01-06T02:13:47.651Z,3.10
2023-01-06T02:18:56.126Z,5.50
2023-01-06T02:24:21.168Z,3.30
2023-01-06T02:30:10.886Z,7.00
2023-01-06T02:35:35.364Z,6.60
2023-01-06T02:46:01.830Z,4.90
2023-01-06T02:51:16.815Z,8.60
2023-01-06T02:56:25.518Z,3.00
2023-01-06T03:01:41.850Z,7.00
2023-01-06T03:06:47.172Z,3.80
2023-01-06T03:11:51.802Z,3.30
2023-01-06T03:16:54.848Z,5.30
2023-01-06T03:21:59.057Z,5.00
2023-01-06T03:27:01.135Z,7.90
2023-01-06T03:32:27.732Z,8.20
2023-01-06T03:37:40.506Z,8.40
2023-01-06T03:43:13.668Z,6.20
2023-01-06T03:48:22.692Z,3.80
2023-01-06T03:53:36.909Z,16.00
2023-01-06T03:58:40.810Z,29.60
2023-01-06T04:08:47.770Z,7.20
2023-01-06T04:13:49.752Z,8.00
2023-01-06T04:18:51.570Z,4.70
2023-01-06T04:23:53.400Z,8.10
2023-01-06T04:28:55.632Z,4.90
2023-01-06T04:33:57.498Z,11.30
2023-01-06T04:38:59.649Z,6.10
2023-01-06T04:44:01.616Z,4.30
2023-01-06T04:49:03.548Z,9.20
2023-01-06T04:54:06.257Z,4.60
2023-01-06T04:59:07.997Z,7.00
2023-01-06T05:04:09.900Z,6.10
2023-01-06T05:09:11.754Z,7.00
2023-01-06T05:14:13.564Z,3.30
2023-01-06T05:19:15.310Z,8.70
2023-01-06T05:24:17.021Z,4.20
2023-01-06T05:29:18.812Z,8.00
2023-01-06T05:34:20.494Z,7.30
2023-01-06T05:39:22.422Z,5.20
2023-01-06T05:44:24.144Z,12.20
2023-01-06T05:49:26.003Z,7.80
2023-01-06T05:54:27.655Z,8.90
2023-01-06T05:59:29.365Z,11.50
2023-01-06T06:04:31.072Z,12.90
2023-01-06T06:09:32.792Z,15.20
2023-01-06T06:14:34.500Z,15.80
2023-01-06T06:19:36.204Z,17.30
2023-01-06T06:24:38.133Z,20.60
2023-01-06T06:29:39.791Z,18.60
2023-01-06T06:34:41.763Z,25.70
2023-01-06T06:39:43.453Z,22.80
2023-01-06T06:44:45.142Z,20.30
2023-01-06T06:49:46.875Z,19.90
2023-01-06T06:54:48.547Z,15.50
2023-01-06T06:59:50.233Z,23.20
2023-01-06T07:04:51.898Z,17.10
2023-01-06T07:09:53.578Z,14.70
2023-01-06T07:14:55.267Z,6.60
2023-01-06T07:19:56.933Z,11.80
2023-01-06T07:24:58.639Z,9.20
2023-01-06T07:30:00.528Z,9.30
2023-01-06T07:35:02.225Z,9.00
2023-01-06T07:40:04.571Z,9.00
2023-01-06T07:45:10.003Z,10.50
2023-01-06T07:50:11.721Z,8.20
2023-01-06T07:55:13.474Z,8.20
2023-01-06T08:00:15.641Z,21.20
2023-01-06T08:05:17.392Z,9.70
2023-01-06T08:10:19.098Z,17.20
2023-01-06T08:15:20.859Z,11.50
2023-01-06T08:20:23.088Z,5.40
2023-01-06T08:25:24.986Z,10.90
2023-01-06T08:30:27.202Z,10.90
2023-01-06T08:35:28.884Z,10.50
2023-01-06T08:40:30.638Z,16.80
2023-01-06T08:45:32.374Z,19.10
2023-01-06T08:50:34.054Z,11.50
2023-01-06T08:55:39.648Z,11.50
2023-01-06T09:00:43.300Z,10.10
2023-01-06T09:05:52.491Z,9.20
2023-01-06T09:10:54.204Z,14.10
2023-01-06T09:15:55.936Z,16.40
2023-01-06T09:20:57.645Z,15.00
2023-01-06T09:25:59.525Z,16.20
2023-01-06T09:31:01.646Z,12.60
2023-01-06T09:36:03.802Z,18.00
2023-01-06T09:41:17.491Z,9.80
2023-01-06T09:46:23.950Z,11.60
2023-01-06T09:51:27.863Z,8.30
2023-01-06T09:56:30.672Z,10.30
2023-01-06T10:01:38.694Z,9.50
2023-01-06T10:06:56.043Z,14.80
2023-01-06T10:12:52.540Z,15.40
2023-01-06T10:18:21.558Z,13.50
2023-01-06T10:23:40.095Z,16.40
2023-01-06T10:28:44.825Z,13.50
2023-01-06T10:33:52.358Z,16.30
2023-01-06T10:38:55.247Z,14.40
2023-01-06T10:43:57.798Z,21.20
2023-01-06T10:49:01.107Z,20.40
2023-01-06T10:54:08.757Z,17.30
2023-01-06T10:59:12.029Z,11.60
2023-01-06T11:04:15.398Z,12.30
2023-01-06T11:09:39.469Z,11.40
2023-01-06T11:14:41.800Z,14.10
2023-01-06T11:19:45.697Z,16.90
2023-01-06T11:24:53.200Z,17.00
2023-01-06T11:29:55.273Z,17.40
2023-01-06T11:35:03.555Z,18.20
2023-01-06T11:40:33.626Z,17.00
2023-01-06T11:45:37.445Z,15.00
2023-01-06T11:50:39.248Z,13.30
2023-01-06T11:55:41.381Z,17.00
2023-01-06T12:00:52.833Z,17.90
2023-01-06T12:06:05.891Z,14.00
2023-01-06T12:11:16.722Z,11.30
2023-01-06T12:16:32.758Z,14.00
2023-01-06T12:21:36.630Z,15.00
2023-01-06T12:26:39.990Z,12.30
2023-01-06T12:31:55.326Z,13.10
2023-01-06T12:37:01.834Z,17.70
2023-01-06T12:42:15.595Z,13.80
2023-01-06T12:47:23.370Z,12.30
2023-01-06T12:52:48.083Z,9.70
2023-01-06T12:58:38.916Z,12.50
2023-01-06T13:04:06.039Z,11.00
2023-01-06T13:09:23.139Z,13.50
2023-01-06T13:14:52.955Z,14.40
2023-01-06T13:19:57.880Z,13.10
2023-01-06T13:25:25.258Z,15.10
2023-01-06T13:30:41.806Z,16.70
2023-01-06T13:35:49.515Z,14.10
2023-01-06T13:40:53.377Z,15.30
2023-01-06T13:46:01.905Z,11.20
2023-01-06T13:51:07.385Z,14.00
2023-01-06T13:56:12.216Z,12.00
2023-01-06T14:01:20.203Z,12.30
2023-01-06T14:06:22.035Z,12.60
2023-01-06T14:11:30.805Z,11.10
2023-01-06T14:16:44.555Z,12.10
2023-01-06T14:21:49.365Z,17.50
2023-01-06T14:26:58.250Z,15.60
2023-01-06T14:31:59.897Z,13.10
2023-01-06T14:37:03.409Z,17.20
2023-01-06T14:42:31.038Z,11.20
2023-01-06T14:47:46.021Z,12.40
2023-01-06T14:52:57.556Z,18.60
2023-01-06T14:57:59.318Z,16.60
2023-01-06T15:03:03.937Z,12.90
2023-01-06T15:08:15.072Z,15.30
2023-01-06T15:13:31.796Z,16.50
2023-01-06T15:18:42.815Z,14.30
2023-01-06T15:23:50.972Z,20.50
2023-01-06T15:29:00.113Z,15.00
2023-01-06T15:34:08.049Z,12.00
2023-01-06T15:39:14.874Z,20.00
2023-01-06T15:44:25.670Z,21.50
2023-01-06T15:49:36.728Z,19.50
2023-01-06T15:54:43.899Z,19.00
2023-01-06T16:00:04.471Z,25.60
2023-01-06T16:05:07.254Z,23.20
2023-01-06T16:10:59.625Z,16.60
2023-01-06T16:16:16.070Z,17.60
2023-01-06T16:21:24.749Z,20.00
2023-01-06T16:26:33.407Z,20.40
2023-01-06T16:31:38.996Z,20.40
2023-01-06T16:36:40.907Z,18.50
2023-01-06T16:42:47.601Z,20.90
2023-01-06T16:47:50.409Z,23.70
2023-01-06T16:53:02.428Z,19.00
2023-01-06T16:58:18.011Z,17.30
2023-01-06T17:03:26.214Z,20.40
2023-01-06T17:08:30.304Z,20.40
2023-01-06T17:18:56.527Z,18.40
2023-01-06T17:24:19.697Z,17.20
2023-01-06T17:29:21.565Z,21.40
2023-01-06T17:34:31.877Z,18.90
2023-01-06T17:44:51.635Z,20.00
2023-01-06T17:49:55.831Z,21.40
2023-01-06T18:00:33.207Z,15.70
2023-01-06T18:05:34.986Z,22.10
2023-01-06T18:10:41.823Z,21.40
2023-01-06T18:15:50.303Z,27.60
2023-01-06T18:20:59.928Z,21.10
2023-01-06T18:26:30.323Z,15.00
2023-01-06T18:31:35.765Z,25.10
2023-01-06T18:36:37.730Z,25.80
2023-01-06T18:41:39.549Z,21.70
2023-01-06T18:46:42.199Z,27.50
2023-01-06T18:51:43.856Z,31.90
2023-01-06T18:56:45.997Z,33.00
2023-01-06T19:01:54.977Z,28.90
2023-01-06T19:07:03.341Z,31.20
2023-01-06T19:12:07.809Z,35.80
2023-01-06T19:17:15.790Z,29.40
2023-01-06T19:22:36.135Z,31.80
2023-01-06T19:27:49.681Z,24.80
2023-01-06T19:32:51.351Z,33.40
2023-01-06T19:38:09.697Z,27.30
2023-01-06T19:43:15.947Z,25.30
2023-01-06T19:48:25.226Z,21.10
2023-01-06T19:53:44.001Z,24.60
2023-01-06T19:59:27.249Z,32.80
2023-01-06T20:04:29.095Z,29.20
2023-01-06T20:09:33.420Z,25.60
2023-01-06T20:14:36.437Z,24.50
2023-01-06T20:19:38.142Z,24.50
2023-01-06T20:24:40.093Z,19.30
2023-01-06T20:29:41.913Z,25.10
2023-01-06T20:34:43.634Z,23.30
2023-01-06T20:39:47.740Z,20.70
2023-01-06T20:49:52.263Z,19.10
2023-01-06T20:54:54.345Z,20.20
2023-01-06T20:59:55.999Z,22.30
2023-01-06T21:04:57.664Z,18.40
2023-01-06T21:10:00.369Z,17.30
2023-01-06T21:15:02.599Z,18.30
2023-01-06T21:20:06.277Z,19.10
2023-01-06T21:25:08.996Z,15.60
2023-01-06T21:30:11.634Z,14.00
2023-01-06T21:35:14.101Z,16.90
2023-01-06T21:40:15.916Z,24.40
2023-01-06T21:45:17.721Z,19.40
2023-01-06T21:50:19.640Z,17.70
2023-01-06T21:55:22.047Z,17.40
2023-01-06T22:00:23.748Z,23.70
2023-01-06T22:05:25.451Z,22.40
2023-01-06T22:10:27.461Z,27.70
2023-01-06T22:15:30.048Z,20.60
2023-01-06T22:20:32.232Z,17.50
2023-01-06T22:25:33.972Z,16.60
2023-01-06T22:30:36.181Z,16.80
2023-01-06T22:35:38.359Z,9.30
2023-01-06T22:40:40.092Z,16.10
2023-01-06T22:45:41.809Z,25.80
2023-01-06T22:50:43.533Z,24.60
2023-01-06T22:55:45.176Z,20.80
2023-01-06T23:00:46.831Z,19.80
2023-01-06T23:05:55.702Z,27.00
2023-01-06T23:11:02.987Z,19.10
2023-01-06T23:16:06.705Z,21.50
2023-01-06T23:21:18.820Z,15.10
2023-01-06T23:26:28.175Z,16.20
2023-01-06T23:31:32.773Z,15.90
2023-01-06T23:36:36.691Z,18.30
2023-01-06T23:41:41.372Z,23.40
2023-01-06T23:46:44.136Z,28.80
2023-01-06T23:51:46.412Z,26.80
2023-01-06T23:56:48.080Z,19.40
